sensor_id;sensor_type;location;lat;lon;timestamp;P1;durP1;ratioP1;P2;durP2;ratioP2
13085;SDS011;6609;49.882;8.664;2023-03-25T00:00:22;5.57;;;1.43;;
13085;SDS011;6609;49.882;8.664;2023-03-25T00:02:50;4.63;;;1.50;;
13085;SDS011;6609;49.882;8.664;2023-03-25T00:05:18;5.10;;;1.50;;
13085;SDS011;6609;49.882;8.664;2023-03-25T00:07:47;9.80;;;2.33;;
13085;SDS011;6609;49.882;8.664;2023-03-25T00:10:15;6.53;;;1.77;;
13085;SDS011;6609;49.882;8.664;2023-03-25T00:12:43;6.97;;;2.27;;
13085;SDS011;6609;49.882;8.664;2023-03-25T00:15:11;5.20;;;1.27;;
13085;SDS011;6609;49.882;8.664;2023-03-25T00:17:40;3.80;;;1.20;;
13085;SDS011;6609;49.882;8.664;2023-03-25T00:20:08;6.23;;;1.67;;
13085;SDS011;6609;49.882;8.664;2023-03-25T00:22:36;2.10;;;0.83;;
13085;SDS011;6609;49.882;8.664;2023-03-25T00:25:05;3.90;;;1.10;;
13085;SDS011;6609;49.882;8.664;2023-03-25T00:27:33;4.30;;;1.20;;
13085;SDS011;6609;49.882;8.664;2023-03-25T00:30:00;6.33;;;1.73;;
13085;SDS011;6609;49.882;8.664;2023-03-25T00:32:29;5.47;;;1.40;;
13085;SDS011;6609;49.882;8.664;2023-03-25T00:34:57;7.67;;;1.93;;
13085;SDS011;6609;49.882;8.664;2023-03-25T00:37:24;5.50;;;1.40;;
13085;SDS011;6609;49.882;8.664;2023-03-25T00:39:51;4.17;;;1.30;;
13085;SDS011;6609;49.882;8.664;2023-03-25T00:42:18;5.57;;;1.70;;
13085;SDS011;6609;49.882;8.664;2023-03-25T00:44:50;5.23;;;1.87;;
13085;SDS011;6609;49.882;8.664;2023-03-25T00:47:17;6.93;;;2.13;;
13085;SDS011;6609;49.882;8.664;2023-03-25T00:49:47;5.87;;;1.70;;
13085;SDS011;6609;49.882;8.664;2023-03-25T00:52:15;6.83;;;1.73;;
13085;SDS011;6609;49.882;8.664;2023-03-25T00:54:43;7.67;;;2.20;;
13085;SDS011;6609;49.882;8.664;2023-03-25T00:57:10;4.70;;;1.60;;
13085;SDS011;6609;49.882;8.664;2023-03-25T00:59:37;4.33;;;1.73;;
13085;SDS011;6609;49.882;8.664;2023-03-25T01:02:04;4.67;;;1.40;;
13085;SDS011;6609;49.882;8.664;2023-03-25T01:04:32;4.77;;;1.67;;
13085;SDS011;6609;49.882;8.664;2023-03-25T01:07:00;3.97;;;1.33;;
13085;SDS011;6609;49.882;8.664;2023-03-25T01:09:27;5.57;;;1.30;;
13085;SDS011;6609;49.882;8.664;2023-03-25T01:11:54;3.57;;;1.20;;
13085;SDS011;6609;49.882;8.664;2023-03-25T01:14:21;4.50;;;1.50;;
13085;SDS011;6609;49.882;8.664;2023-03-25T01:16:51;7.00;;;2.07;;
13085;SDS011;6609;49.882;8.664;2023-03-25T01:19:18;4.23;;;1.67;;
13085;SDS011;6609;49.882;8.664;2023-03-25T01:21:45;5.17;;;1.63;;
13085;SDS011;6609;49.882;8.664;2023-03-25T01:24:13;8.30;;;1.90;;
13085;SDS011;6609;49.882;8.664;2023-03-25T01:26:40;6.33;;;1.70;;
13085;SDS011;6609;49.882;8.664;2023-03-25T01:29:10;4.30;;;1.47;;
13085;SDS011;6609;49.882;8.664;2023-03-25T01:31:37;5.03;;;1.63;;
13085;SDS011;6609;49.882;8.664;2023-03-25T01:34:04;5.40;;;1.53;;
13085;SDS011;6609;49.882;8.664;2023-03-25T01:36:32;7.87;;;2.03;;
13085;SDS011;6609;49.882;8.664;2023-03-25T01:39:00;7.43;;;1.97;;
13085;SDS011;6609;49.882;8.664;2023-03-25T01:41:31;6.50;;;1.47;;
13085;SDS011;6609;49.882;8.664;2023-03-25T01:43:59;6.00;;;1.60;;
13085;SDS011;6609;49.882;8.664;2023-03-25T01:46:27;9.27;;;2.10;;
13085;SDS011;6609;49.882;8.664;2023-03-25T01:48:54;6.33;;;2.00;;
13085;SDS011;6609;49.882;8.664;2023-03-25T01:51:22;5.60;;;1.80;;
13085;SDS011;6609;49.882;8.664;2023-03-25T01:53:52;8.07;;;2.30;;
13085;SDS011;6609;49.882;8.664;2023-03-25T01:56:19;6.37;;;1.93;;
13085;SDS011;6609;49.882;8.664;2023-03-25T01:58:52;10.07;;;2.80;;
13085;SDS011;6609;49.882;8.664;2023-03-25T02:01:20;8.17;;;2.27;;
13085;SDS011;6609;49.882;8.664;2023-03-25T02:03:47;8.17;;;2.50;;
13085;SDS011;6609;49.882;8.664;2023-03-25T02:06:16;14.27;;;2.67;;
13085;SDS011;6609;49.882;8.664;2023-03-25T02:08:49;9.83;;;2.37;;
13085;SDS011;6609;49.882;8.664;2023-03-25T02:11:19;10.10;;;2.63;;
13085;SDS011;6609;49.882;8.664;2023-03-25T02:13:49;9.00;;;2.10;;
13085;SDS011;6609;49.882;8.664;2023-03-25T02:16:21;8.43;;;2.17;;
13085;SDS011;6609;49.882;8.664;2023-03-25T02:18:57;9.77;;;2.43;;
13085;SDS011;6609;49.882;8.664;2023-03-25T02:24:59;7.83;;;2.67;;
13085;SDS011;6609;49.882;8.664;2023-03-25T02:27:41;3.90;;;1.20;;
13085;SDS011;6609;49.882;8.664;2023-03-25T02:30:32;7.73;;;1.57;;
13085;SDS011;6609;49.882;8.664;2023-03-25T02:33:16;6.43;;;1.60;;
13085;SDS011;6609;49.882;8.664;2023-03-25T02:36:03;9.20;;;1.90;;
13085;SDS011;6609;49.882;8.664;2023-03-25T02:38:36;7.33;;;1.83;;
13085;SDS011;6609;49.882;8.664;2023-03-25T02:41:10;8.20;;;2.17;;
13085;SDS011;6609;49.882;8.664;2023-03-25T02:43:38;5.50;;;1.03;;
13085;SDS011;6609;49.882;8.664;2023-03-25T02:46:10;13.77;;;2.37;;
13085;SDS011;6609;49.882;8.664;2023-03-25T02:48:41;5.93;;;1.43;;
13085;SDS011;6609;49.882;8.664;2023-03-25T02:51:11;7.60;;;1.60;;
13085;SDS011;6609;49.882;8.664;2023-03-25T02:53:43;6.93;;;1.80;;
13085;SDS011;6609;49.882;8.664;2023-03-25T02:56:13;7.40;;;1.90;;
13085;SDS011;6609;49.882;8.664;2023-03-25T02:58:42;7.87;;;1.90;;
13085;SDS011;6609;49.882;8.664;2023-03-25T03:01:10;5.10;;;1.40;;
13085;SDS011;6609;49.882;8.664;2023-03-25T03:03:38;6.47;;;1.20;;
13085;SDS011;6609;49.882;8.664;2023-03-25T03:06:06;5.30;;;1.20;;
13085;SDS011;6609;49.882;8.664;2023-03-25T03:08:42;4.90;;;1.23;;
13085;SDS011;6609;49.882;8.664;2023-03-25T03:11:34;6.50;;;1.40;;
13085;SDS011;6609;49.882;8.664;2023-03-25T03:16:57;15.50;;;3.00;;
13085;SDS011;6609;49.882;8.664;2023-03-25T03:19:32;9.57;;;2.00;;
13085;SDS011;6609;49.882;8.664;2023-03-25T03:22:05;10.37;;;1.93;;
13085;SDS011;6609;49.882;8.664;2023-03-25T03:24:40;6.57;;;1.47;;
13085;SDS011;6609;49.882;8.664;2023-03-25T03:27:12;3.77;;;1.00;;
13085;SDS011;6609;49.882;8.664;2023-03-25T03:29:48;4.30;;;1.27;;
13085;SDS011;6609;49.882;8.664;2023-03-25T03:32:18;8.30;;;1.77;;
13085;SDS011;6609;49.882;8.664;2023-03-25T03:34:48;7.07;;;1.53;;
13085;SDS011;6609;49.882;8.664;2023-03-25T03:37:20;8.40;;;1.80;;
13085;SDS011;6609;49.882;8.664;2023-03-25T03:39:49;6.53;;;1.50;;
13085;SDS011;6609;49.882;8.664;2023-03-25T03:42:21;6.63;;;1.47;;
13085;SDS011;6609;49.882;8.664;2023-03-25T03:44:55;7.57;;;1.60;;
13085;SDS011;6609;49.882;8.664;2023-03-25T03:47:27;6.60;;;1.60;;
13085;SDS011;6609;49.882;8.664;2023-03-25T03:49:57;8.63;;;1.80;;
13085;SDS011;6609;49.882;8.664;2023-03-25T03:52:26;11.37;;;2.30;;
13085;SDS011;6609;49.882;8.664;2023-03-25T03:54:57;7.63;;;1.90;;
13085;SDS011;6609;49.882;8.664;2023-03-25T03:57:26;10.60;;;2.47;;
13085;SDS011;6609;49.882;8.664;2023-03-25T03:59:56;5.97;;;1.50;;
13085;SDS011;6609;49.882;8.664;2023-03-25T04:02:31;12.60;;;2.70;;
13085;SDS011;6609;49.882;8.664;2023-03-25T04:05:02;6.77;;;1.83;;
13085;SDS011;6609;49.882;8.664;2023-03-25T04:07:31;6.60;;;1.87;;
13085;SDS011;6609;49.882;8.664;2023-03-25T04:10:06;6.37;;;2.03;;
13085;SDS011;6609;49.882;8.664;2023-03-25T04:12:40;11.03;;;2.53;;
13085;SDS011;6609;49.882;8.664;2023-03-25T04:15:09;6.23;;;1.80;;
13085;SDS011;6609;49.882;8.664;2023-03-25T04:17:37;10.20;;;2.27;;
13085;SDS011;6609;49.882;8.664;2023-03-25T04:20:04;4.77;;;1.50;;
13085;SDS011;6609;49.882;8.664;2023-03-25T04:22:33;8.23;;;2.03;;
13085;SDS011;6609;49.882;8.664;2023-03-25T04:25:03;6.60;;;1.60;;
13085;SDS011;6609;49.882;8.664;2023-03-25T04:27:31;8.60;;;2.10;;
13085;SDS011;6609;49.882;8.664;2023-03-25T04:30:01;8.43;;;1.90;;
13085;SDS011;6609;49.882;8.664;2023-03-25T04:32:29;5.80;;;1.90;;
13085;SDS011;6609;49.882;8.664;2023-03-25T04:34:55;8.23;;;2.17;;
13085;SDS011;6609;49.882;8.664;2023-03-25T04:37:22;8.13;;;2.07;;
13085;SDS011;6609;49.882;8.664;2023-03-25T04:39:49;10.00;;;2.13;;
13085;SDS011;6609;49.882;8.664;2023-03-25T04:42:17;7.57;;;2.00;;
13085;SDS011;6609;49.882;8.664;2023-03-25T04:44:46;9.17;;;2.40;;
13085;SDS011;6609;49.882;8.664;2023-03-25T04:47:12;7.47;;;1.63;;
13085;SDS011;6609;49.882;8.664;2023-03-25T04:49:41;7.23;;;1.90;;
13085;SDS011;6609;49.882;8.664;2023-03-25T04:52:09;6.10;;;1.90;;
13085;SDS011;6609;49.882;8.664;2023-03-25T04:54:36;7.57;;;1.87;;
13085;SDS011;6609;49.882;8.664;2023-03-25T04:57:04;7.60;;;1.70;;
13085;SDS011;6609;49.882;8.664;2023-03-25T04:59:32;7.77;;;2.20;;
13085;SDS011;6609;49.882;8.664;2023-03-25T05:02:01;9.03;;;2.10;;
13085;SDS011;6609;49.882;8.664;2023-03-25T05:04:29;8.13;;;1.93;;
13085;SDS011;6609;49.882;8.664;2023-03-25T05:06:56;7.77;;;2.13;;
13085;SDS011;6609;49.882;8.664;2023-03-25T05:09:23;5.87;;;1.90;;
13085;SDS011;6609;49.882;8.664;2023-03-25T05:11:51;13.03;;;2.50;;
13085;SDS011;6609;49.882;8.664;2023-03-25T05:14:20;6.57;;;1.73;;
13085;SDS011;6609;49.882;8.664;2023-03-25T05:16:47;7.37;;;2.10;;
13085;SDS011;6609;49.882;8.664;2023-03-25T05:19:15;4.63;;;1.40;;
13085;SDS011;6609;49.882;8.664;2023-03-25T05:21:44;6.87;;;2.13;;
13085;SDS011;6609;49.882;8.664;2023-03-25T05:24:12;5.30;;;1.23;;
13085;SDS011;6609;49.882;8.664;2023-03-25T05:26:39;6.70;;;1.53;;
13085;SDS011;6609;49.882;8.664;2023-03-25T05:29:08;5.60;;;1.63;;
13085;SDS011;6609;49.882;8.664;2023-03-25T05:31:38;9.10;;;2.37;;
13085;SDS011;6609;49.882;8.664;2023-03-25T05:34:04;8.27;;;2.20;;
13085;SDS011;6609;49.882;8.664;2023-03-25T05:36:34;13.87;;;3.33;;
13085;SDS011;6609;49.882;8.664;2023-03-25T05:39:01;13.20;;;3.10;;
13085;SDS011;6609;49.882;8.664;2023-03-25T05:41:29;7.43;;;2.13;;
13085;SDS011;6609;49.882;8.664;2023-03-25T05:43:57;10.50;;;2.30;;
13085;SDS011;6609;49.882;8.664;2023-03-25T05:46:25;8.70;;;2.00;;
13085;SDS011;6609;49.882;8.664;2023-03-25T05:48:53;6.20;;;1.87;;
13085;SDS011;6609;49.882;8.664;2023-03-25T05:51:21;7.03;;;1.47;;
13085;SDS011;6609;49.882;8.664;2023-03-25T05:53:51;7.03;;;1.60;;
13085;SDS011;6609;49.882;8.664;2023-03-25T05:56:19;9.17;;;2.13;;
13085;SDS011;6609;49.882;8.664;2023-03-25T05:58:48;9.17;;;2.30;;
13085;SDS011;6609;49.882;8.664;2023-03-25T06:01:16;8.30;;;2.03;;
13085;SDS011;6609;49.882;8.664;2023-03-25T06:03:45;8.10;;;2.20;;
13085;SDS011;6609;49.882;8.664;2023-03-25T06:06:12;10.57;;;2.30;;
13085;SDS011;6609;49.882;8.664;2023-03-25T06:08:42;7.03;;;1.70;;
13085;SDS011;6609;49.882;8.664;2023-03-25T06:11:11;8.10;;;2.10;;
13085;SDS011;6609;49.882;8.664;2023-03-25T06:13:39;7.83;;;2.07;;
13085;SDS011;6609;49.882;8.664;2023-03-25T06:16:06;10.03;;;2.50;;
13085;SDS011;6609;49.882;8.664;2023-03-25T06:18:33;10.17;;;2.57;;
13085;SDS011;6609;49.882;8.664;2023-03-25T06:21:00;7.47;;;2.50;;
13085;SDS011;6609;49.882;8.664;2023-03-25T06:23:27;10.63;;;2.40;;
13085;SDS011;6609;49.882;8.664;2023-03-25T06:25:55;7.33;;;2.33;;
13085;SDS011;6609;49.882;8.664;2023-03-25T06:28:24;10.50;;;2.70;;
13085;SDS011;6609;49.882;8.664;2023-03-25T06:30:50;8.37;;;2.17;;
13085;SDS011;6609;49.882;8.664;2023-03-25T06:39:09;14.80;;;3.17;;
13085;SDS011;6609;49.882;8.664;2023-03-25T06:41:38;11.10;;;2.40;;
13085;SDS011;6609;49.882;8.664;2023-03-25T06:44:06;10.20;;;2.80;;
13085;SDS011;6609;49.882;8.664;2023-03-25T06:46:33;12.47;;;2.90;;
13085;SDS011;6609;49.882;8.664;2023-03-25T06:49:00;8.83;;;2.37;;
13085;SDS011;6609;49.882;8.664;2023-03-25T06:51:27;8.53;;;2.53;;
13085;SDS011;6609;49.882;8.664;2023-03-25T06:53:54;9.60;;;2.77;;
13085;SDS011;6609;49.882;8.664;2023-03-25T06:56:21;11.43;;;2.77;;
13085;SDS011;6609;49.882;8.664;2023-03-25T06:58:47;11.00;;;2.37;;
13085;SDS011;6609;49.882;8.664;2023-03-25T07:01:16;9.73;;;2.33;;
13085;SDS011;6609;49.882;8.664;2023-03-25T07:03:42;8.83;;;2.13;;
13085;SDS011;6609;49.882;8.664;2023-03-25T07:06:13;9.97;;;2.53;;
13085;SDS011;6609;49.882;8.664;2023-03-25T07:08:41;9.43;;;2.40;;
13085;SDS011;6609;49.882;8.664;2023-03-25T07:11:08;6.30;;;2.07;;
13085;SDS011;6609;49.882;8.664;2023-03-25T07:13:36;6.00;;;1.67;;
13085;SDS011;6609;49.882;8.664;2023-03-25T07:16:03;12.73;;;2.40;;
13085;SDS011;6609;49.882;8.664;2023-03-25T07:18:31;11.50;;;2.67;;
13085;SDS011;6609;49.882;8.664;2023-03-25T07:20:58;8.60;;;2.50;;
13085;SDS011;6609;49.882;8.664;2023-03-25T07:23:25;10.03;;;2.60;;
13085;SDS011;6609;49.882;8.664;2023-03-25T07:25:52;7.73;;;2.13;;
13085;SDS011;6609;49.882;8.664;2023-03-25T07:28:21;9.23;;;2.97;;
13085;SDS011;6609;49.882;8.664;2023-03-25T07:30:48;8.90;;;2.27;;
13085;SDS011;6609;49.882;8.664;2023-03-25T07:33:15;9.70;;;2.07;;
13085;SDS011;6609;49.882;8.664;2023-03-25T07:35:43;8.37;;;2.83;;
13085;SDS011;6609;49.882;8.664;2023-03-25T07:38:10;12.43;;;3.10;;
13085;SDS011;6609;49.882;8.664;2023-03-25T07:40:36;16.53;;;3.80;;
13085;SDS011;6609;49.882;8.664;2023-03-25T07:43:03;12.53;;;2.47;;
13085;SDS011;6609;49.882;8.664;2023-03-25T07:45:30;12.63;;;3.07;;
13085;SDS011;6609;49.882;8.664;2023-03-25T07:47:58;11.47;;;2.97;;
13085;SDS011;6609;49.882;8.664;2023-03-25T07:50:25;12.50;;;2.90;;
13085;SDS011;6609;49.882;8.664;2023-03-25T07:52:53;6.90;;;2.43;;
13085;SDS011;6609;49.882;8.664;2023-03-25T07:55:20;10.37;;;3.30;;
13085;SDS011;6609;49.882;8.664;2023-03-25T07:57:47;12.83;;;3.53;;
13085;SDS011;6609;49.882;8.664;2023-03-25T08:00:15;18.20;;;3.97;;
13085;SDS011;6609;49.882;8.664;2023-03-25T08:02:42;14.87;;;3.20;;
13085;SDS011;6609;49.882;8.664;2023-03-25T08:05:09;13.13;;;2.17;;
13085;SDS011;6609;49.882;8.664;2023-03-25T08:07:36;14.03;;;3.00;;
13085;SDS011;6609;49.882;8.664;2023-03-25T08:10:05;11.80;;;2.60;;
13085;SDS011;6609;49.882;8.664;2023-03-25T08:12:32;13.00;;;2.77;;
13085;SDS011;6609;49.882;8.664;2023-03-25T08:15:01;9.33;;;2.43;;
13085;SDS011;6609;49.882;8.664;2023-03-25T08:17:28;10.63;;;2.77;;
13085;SDS011;6609;49.882;8.664;2023-03-25T08:19:55;11.77;;;3.67;;
13085;SDS011;6609;49.882;8.664;2023-03-25T08:22:23;13.37;;;2.90;;
13085;SDS011;6609;49.882;8.664;2023-03-25T08:24:49;14.30;;;4.53;;
13085;SDS011;6609;49.882;8.664;2023-03-25T08:27:18;12.67;;;3.50;;
13085;SDS011;6609;49.882;8.664;2023-03-25T08:29:45;12.20;;;3.37;;
13085;SDS011;6609;49.882;8.664;2023-03-25T08:32:18;11.63;;;3.07;;
13085;SDS011;6609;49.882;8.664;2023-03-25T08:34:45;14.90;;;3.37;;
13085;SDS011;6609;49.882;8.664;2023-03-25T08:37:12;13.30;;;3.53;;
13085;SDS011;6609;49.882;8.664;2023-03-25T08:39:40;14.63;;;3.30;;
13085;SDS011;6609;49.882;8.664;2023-03-25T08:42:09;11.03;;;3.33;;
13085;SDS011;6609;49.882;8.664;2023-03-25T08:44:38;14.17;;;3.20;;
13085;SDS011;6609;49.882;8.664;2023-03-25T08:47:05;7.43;;;2.23;;
13085;SDS011;6609;49.882;8.664;2023-03-25T08:49:33;11.43;;;3.07;;
13085;SDS011;6609;49.882;8.664;2023-03-25T08:52:00;13.73;;;2.53;;
13085;SDS011;6609;49.882;8.664;2023-03-25T08:54:28;12.23;;;2.80;;
13085;SDS011;6609;49.882;8.664;2023-03-25T08:56:55;9.37;;;2.87;;
13085;SDS011;6609;49.882;8.664;2023-03-25T08:59:22;11.13;;;2.83;;
13085;SDS011;6609;49.882;8.664;2023-03-25T09:01:50;7.03;;;2.30;;
13085;SDS011;6609;49.882;8.664;2023-03-25T09:04:18;8.27;;;2.50;;
13085;SDS011;6609;49.882;8.664;2023-03-25T09:06:45;9.50;;;2.80;;
13085;SDS011;6609;49.882;8.664;2023-03-25T09:09:13;10.13;;;2.80;;
13085;SDS011;6609;49.882;8.664;2023-03-25T09:11:40;7.93;;;2.37;;
13085;SDS011;6609;49.882;8.664;2023-03-25T09:14:07;9.90;;;2.20;;
13085;SDS011;6609;49.882;8.664;2023-03-25T09:16:34;9.60;;;2.73;;
13085;SDS011;6609;49.882;8.664;2023-03-25T09:19:03;12.67;;;2.70;;
13085;SDS011;6609;49.882;8.664;2023-03-25T09:21:30;11.77;;;2.53;;
13085;SDS011;6609;49.882;8.664;2023-03-25T09:23:57;9.27;;;2.57;;
13085;SDS011;6609;49.882;8.664;2023-03-25T09:26:23;9.73;;;2.57;;
13085;SDS011;6609;49.882;8.664;2023-03-25T09:28:51;9.87;;;2.93;;
13085;SDS011;6609;49.882;8.664;2023-03-25T09:31:19;11.47;;;2.60;;
13085;SDS011;6609;49.882;8.664;2023-03-25T09:33:46;9.33;;;2.83;;
13085;SDS011;6609;49.882;8.664;2023-03-25T09:36:15;8.23;;;2.70;;
13085;SDS011;6609;49.882;8.664;2023-03-25T09:38:41;8.60;;;2.43;;
13085;SDS011;6609;49.882;8.664;2023-03-25T09:41:16;9.77;;;2.07;;
13085;SDS011;6609;49.882;8.664;2023-03-25T09:43:53;5.37;;;2.13;;
13085;SDS011;6609;49.882;8.664;2023-03-25T09:46:27;8.00;;;2.50;;
13085;SDS011;6609;49.882;8.664;2023-03-25T09:48:53;8.23;;;2.43;;
13085;SDS011;6609;49.882;8.664;2023-03-25T09:51:23;12.47;;;3.10;;
13085;SDS011;6609;49.882;8.664;2023-03-25T09:53:54;13.60;;;2.93;;
13085;SDS011;6609;49.882;8.664;2023-03-25T09:56:24;10.37;;;3.37;;
13085;SDS011;6609;49.882;8.664;2023-03-25T09:58:55;16.40;;;2.90;;
13085;SDS011;6609;49.882;8.664;2023-03-25T10:01:28;8.70;;;2.83;;
13085;SDS011;6609;49.882;8.664;2023-03-25T10:04:02;12.90;;;2.77;;
13085;SDS011;6609;49.882;8.664;2023-03-25T10:06:53;10.70;;;2.33;;
13085;SDS011;6609;49.882;8.664;2023-03-25T10:09:29;9.90;;;2.93;;
13085;SDS011;6609;49.882;8.664;2023-03-25T10:12:08;11.50;;;2.80;;
13085;SDS011;6609;49.882;8.664;2023-03-25T10:14:50;13.30;;;3.07;;
13085;SDS011;6609;49.882;8.664;2023-03-25T10:17:25;9.87;;;2.00;;
13085;SDS011;6609;49.882;8.664;2023-03-25T10:19:55;14.50;;;2.73;;
13085;SDS011;6609;49.882;8.664;2023-03-25T10:22:27;8.90;;;2.63;;
13085;SDS011;6609;49.882;8.664;2023-03-25T10:25:01;5.97;;;1.83;;
13085;SDS011;6609;49.882;8.664;2023-03-25T10:27:31;6.97;;;1.73;;
13085;SDS011;6609;49.882;8.664;2023-03-25T10:30:02;11.00;;;2.40;;
13085;SDS011;6609;49.882;8.664;2023-03-25T10:32:31;6.90;;;1.90;;
13085;SDS011;6609;49.882;8.664;2023-03-25T10:35:04;9.27;;;2.20;;
13085;SDS011;6609;49.882;8.664;2023-03-25T10:37:36;12.33;;;2.67;;
13085;SDS011;6609;49.882;8.664;2023-03-25T10:40:11;4.30;;;1.27;;
13085;SDS011;6609;49.882;8.664;2023-03-25T10:42:41;7.10;;;2.37;;
13085;SDS011;6609;49.882;8.664;2023-03-25T10:45:15;8.77;;;1.80;;
13085;SDS011;6609;49.882;8.664;2023-03-25T10:47:43;9.07;;;2.30;;
13085;SDS011;6609;49.882;8.664;2023-03-25T10:50:13;8.03;;;2.50;;
13085;SDS011;6609;49.882;8.664;2023-03-25T10:52:42;11.03;;;2.63;;
13085;SDS011;6609;49.882;8.664;2023-03-25T10:55:12;11.50;;;4.17;;
13085;SDS011;6609;49.882;8.664;2023-03-25T10:57:48;9.80;;;3.53;;
13085;SDS011;6609;49.882;8.664;2023-03-25T11:00:16;10.77;;;3.47;;
13085;SDS011;6609;49.882;8.664;2023-03-25T11:02:44;9.13;;;3.53;;
13085;SDS011;6609;49.882;8.664;2023-03-25T11:05:11;8.57;;;2.40;;
13085;SDS011;6609;49.882;8.664;2023-03-25T11:07:43;7.80;;;2.73;;
13085;SDS011;6609;49.882;8.664;2023-03-25T11:10:14;9.37;;;2.73;;
13085;SDS011;6609;49.882;8.664;2023-03-25T11:12:43;7.77;;;2.60;;
13085;SDS011;6609;49.882;8.664;2023-03-25T11:15:13;6.67;;;1.97;;
13085;SDS011;6609;49.882;8.664;2023-03-25T11:17:41;7.13;;;2.00;;
13085;SDS011;6609;49.882;8.664;2023-03-25T11:20:14;9.50;;;2.60;;
13085;SDS011;6609;49.882;8.664;2023-03-25T11:22:45;8.33;;;2.33;;
13085;SDS011;6609;49.882;8.664;2023-03-25T11:25:15;8.10;;;2.60;;
13085;SDS011;6609;49.882;8.664;2023-03-25T11:27:44;7.70;;;2.53;;
13085;SDS011;6609;49.882;8.664;2023-03-25T11:30:15;8.10;;;2.30;;
13085;SDS011;6609;49.882;8.664;2023-03-25T11:32:42;9.13;;;2.67;;
13085;SDS011;6609;49.882;8.664;2023-03-25T11:35:14;7.17;;;1.93;;
13085;SDS011;6609;49.882;8.664;2023-03-25T11:37:44;5.47;;;1.43;;
13085;SDS011;6609;49.882;8.664;2023-03-25T11:40:14;5.80;;;1.50;;
13085;SDS011;6609;49.882;8.664;2023-03-25T11:42:42;8.63;;;2.10;;
13085;SDS011;6609;49.882;8.664;2023-03-25T11:45:18;11.37;;;2.57;;
13085;SDS011;6609;49.882;8.664;2023-03-25T11:47:45;7.80;;;1.93;;
13085;SDS011;6609;49.882;8.664;2023-03-25T11:50:18;8.33;;;2.10;;
13085;SDS011;6609;49.882;8.664;2023-03-25T11:52:45;8.03;;;2.13;;
13085;SDS011;6609;49.882;8.664;2023-03-25T11:55:16;10.80;;;2.30;;
13085;SDS011;6609;49.882;8.664;2023-03-25T11:57:47;8.77;;;2.23;;
13085;SDS011;6609;49.882;8.664;2023-03-25T12:00:18;6.67;;;2.10;;
13085;SDS011;6609;49.882;8.664;2023-03-25T12:02:46;7.37;;;2.10;;
13085;SDS011;6609;49.882;8.664;2023-03-25T12:05:14;8.97;;;2.13;;
13085;SDS011;6609;49.882;8.664;2023-03-25T12:07:42;6.53;;;1.70;;
13085;SDS011;6609;49.882;8.664;2023-03-25T12:10:16;8.73;;;2.20;;
13085;SDS011;6609;49.882;8.664;2023-03-25T12:12:46;7.67;;;2.00;;
13085;SDS011;6609;49.882;8.664;2023-03-25T12:15:18;7.77;;;2.13;;
13085;SDS011;6609;49.882;8.664;2023-03-25T12:17:50;6.77;;;1.90;;
13085;SDS011;6609;49.882;8.664;2023-03-25T12:20:22;8.77;;;1.60;;
13085;SDS011;6609;49.882;8.664;2023-03-25T12:22:54;6.70;;;2.13;;
13085;SDS011;6609;49.882;8.664;2023-03-25T12:25:25;7.73;;;2.23;;
13085;SDS011;6609;49.882;8.664;2023-03-25T12:28:09;7.90;;;2.00;;
13085;SDS011;6609;49.882;8.664;2023-03-25T12:30:44;6.40;;;1.63;;
13085;SDS011;6609;49.882;8.664;2023-03-25T12:33:16;7.67;;;1.90;;
13085;SDS011;6609;49.882;8.664;2023-03-25T12:35:48;6.00;;;1.83;;
13085;SDS011;6609;49.882;8.664;2023-03-25T12:38:24;7.43;;;2.00;;
13085;SDS011;6609;49.882;8.664;2023-03-25T12:41:02;7.47;;;1.80;;
13085;SDS011;6609;49.882;8.664;2023-03-25T12:43:35;8.37;;;2.03;;
13085;SDS011;6609;49.882;8.664;2023-03-25T12:46:08;6.33;;;1.70;;
13085;SDS011;6609;49.882;8.664;2023-03-25T12:48:47;7.53;;;1.87;;
13085;SDS011;6609;49.882;8.664;2023-03-25T12:51:19;6.23;;;2.27;;
13085;SDS011;6609;49.882;8.664;2023-03-25T12:53:55;7.87;;;1.60;;
13085;SDS011;6609;49.882;8.664;2023-03-25T12:59:26;11.30;;;2.43;;
13085;SDS011;6609;49.882;8.664;2023-03-25T13:01:57;10.53;;;2.20;;
13085;SDS011;6609;49.882;8.664;2023-03-25T13:04:46;7.20;;;2.13;;
13085;SDS011;6609;49.882;8.664;2023-03-25T13:07:20;9.47;;;2.20;;
13085;SDS011;6609;49.882;8.664;2023-03-25T13:09:53;9.03;;;2.50;;
13085;SDS011;6609;49.882;8.664;2023-03-25T13:12:28;8.80;;;2.10;;
13085;SDS011;6609;49.882;8.664;2023-03-25T13:14:59;5.57;;;1.60;;
13085;SDS011;6609;49.882;8.664;2023-03-25T13:17:33;2.43;;;0.83;;
13085;SDS011;6609;49.882;8.664;2023-03-25T13:20:02;7.57;;;2.37;;
13085;SDS011;6609;49.882;8.664;2023-03-25T13:22:35;10.60;;;2.27;;
13085;SDS011;6609;49.882;8.664;2023-03-25T13:25:04;13.97;;;2.53;;
13085;SDS011;6609;49.882;8.664;2023-03-25T13:27:38;9.23;;;2.37;;
13085;SDS011;6609;49.882;8.664;2023-03-25T13:30:07;8.23;;;2.10;;
13085;SDS011;6609;49.882;8.664;2023-03-25T13:32:40;6.70;;;1.90;;
13085;SDS011;6609;49.882;8.664;2023-03-25T13:35:12;7.40;;;1.70;;
13085;SDS011;6609;49.882;8.664;2023-03-25T13:37:44;9.17;;;2.13;;
13085;SDS011;6609;49.882;8.664;2023-03-25T13:40:19;5.37;;;1.60;;
13085;SDS011;6609;49.882;8.664;2023-03-25T13:42:51;5.87;;;2.00;;
13085;SDS011;6609;49.882;8.664;2023-03-25T13:45:21;6.80;;;1.93;;
13085;SDS011;6609;49.882;8.664;2023-03-25T13:47:49;8.10;;;1.90;;
13085;SDS011;6609;49.882;8.664;2023-03-25T13:50:23;10.50;;;2.13;;
13085;SDS011;6609;49.882;8.664;2023-03-25T13:52:53;9.07;;;2.20;;
13085;SDS011;6609;49.882;8.664;2023-03-25T13:55:22;8.37;;;2.20;;
13085;SDS011;6609;49.882;8.664;2023-03-25T13:58:01;9.90;;;2.27;;
13085;SDS011;6609;49.882;8.664;2023-03-25T14:00:49;10.33;;;2.20;;
13085;SDS011;6609;49.882;8.664;2023-03-25T14:03:35;9.37;;;2.10;;
13085;SDS011;6609;49.882;8.664;2023-03-25T14:06:10;8.87;;;1.80;;
13085;SDS011;6609;49.882;8.664;2023-03-25T14:08:56;5.73;;;1.30;;
13085;SDS011;6609;49.882;8.664;2023-03-25T14:11:51;7.03;;;1.63;;
13085;SDS011;6609;49.882;8.664;2023-03-25T14:14:23;8.10;;;2.07;;
13085;SDS011;6609;49.882;8.664;2023-03-25T14:16:51;8.80;;;2.27;;
13085;SDS011;6609;49.882;8.664;2023-03-25T14:19:19;10.50;;;2.60;;
13085;SDS011;6609;49.882;8.664;2023-03-25T14:21:49;8.47;;;2.30;;
13085;SDS011;6609;49.882;8.664;2023-03-25T14:24:19;8.70;;;2.50;;
13085;SDS011;6609;49.882;8.664;2023-03-25T14:26:50;10.83;;;1.80;;
13085;SDS011;6609;49.882;8.664;2023-03-25T14:29:22;11.40;;;2.97;;
13085;SDS011;6609;49.882;8.664;2023-03-25T14:32:05;7.63;;;2.07;;
13085;SDS011;6609;49.882;8.664;2023-03-25T14:34:32;7.13;;;2.00;;
13085;SDS011;6609;49.882;8.664;2023-03-25T14:37:14;8.93;;;1.97;;
13085;SDS011;6609;49.882;8.664;2023-03-25T14:39:43;10.03;;;2.57;;
13085;SDS011;6609;49.882;8.664;2023-03-25T14:42:11;7.80;;;1.97;;
13085;SDS011;6609;49.882;8.664;2023-03-25T14:47:50;6.50;;;1.63;;
13085;SDS011;6609;49.882;8.664;2023-03-25T14:50:31;10.23;;;3.13;;
13085;SDS011;6609;49.882;8.664;2023-03-25T14:53:00;7.57;;;1.77;;
13085;SDS011;6609;49.882;8.664;2023-03-25T14:55:29;7.93;;;1.83;;
13085;SDS011;6609;49.882;8.664;2023-03-25T14:57:57;6.20;;;1.80;;
13085;SDS011;6609;49.882;8.664;2023-03-25T15:00:25;7.43;;;2.07;;
13085;SDS011;6609;49.882;8.664;2023-03-25T15:02:58;5.97;;;1.70;;
13085;SDS011;6609;49.882;8.664;2023-03-25T15:05:27;6.53;;;1.97;;
13085;SDS011;6609;49.882;8.664;2023-03-25T15:07:56;6.63;;;2.27;;
13085;SDS011;6609;49.882;8.664;2023-03-25T15:10:26;3.80;;;1.53;;
13085;SDS011;6609;49.882;8.664;2023-03-25T15:12:56;5.57;;;1.50;;
13085;SDS011;6609;49.882;8.664;2023-03-25T15:15:28;8.90;;;2.20;;
13085;SDS011;6609;49.882;8.664;2023-03-25T15:17:55;6.40;;;2.00;;
13085;SDS011;6609;49.882;8.664;2023-03-25T15:20:28;8.47;;;2.10;;
13085;SDS011;6609;49.882;8.664;2023-03-25T15:25:56;6.83;;;2.23;;
13085;SDS011;6609;49.882;8.664;2023-03-25T15:28:28;12.90;;;2.70;;
13085;SDS011;6609;49.882;8.664;2023-03-25T15:31:05;6.27;;;1.70;;
13085;SDS011;6609;49.882;8.664;2023-03-25T15:33:43;7.70;;;2.20;;
13085;SDS011;6609;49.882;8.664;2023-03-25T15:39:11;4.03;;;1.60;;